sensor_id;sensor_type;location;lat;lon;timestamp;pressure;altitude;pressure_sealevel;temperature;humidity
51195;BME280;37259;49.972;19.850;2022-10-31T00:00:59;99160;;;11.6;90.6
51195;BME280;37259;49.972;19.850;2022-10-31T00:01:59;99160;;;11.6;91.2
51195;BME280;37259;49.972;19.850;2022-10-31T00:02:59;99160;;;11.6;91.2
51195;BME280;37259;49.972;19.850;2022-10-31T00:03:59;99160;;;11.7;91.2
51195;BME280;37259;49.972;19.850;2022-10-31T00:04:59;99160;;;11.7;91.3
51195;BME280;37259;49.972;19.850;2022-10-31T00:05:59;99160;;;11.7;91.3
51195;BME280;37259;49.972;19.850;2022-10-31T00:06:59;99160;;;11.7;91.3
51195;BME280;37259;49.972;19.850;2022-10-31T00:07:59;99160;;;11.7;91.3
51195;BME280;37259;49.972;19.850;2022-10-31T00:09:00;99160;;;11.7;91.3
51195;BME280;37259;49.972;19.850;2022-10-31T00:09:59;99160;;;11.7;91.3
51195;BME280;37259;49.972;19.850;2022-10-31T00:10:59;99160;;;11.7;91.3
51195;BME280;37259;49.972;19.850;2022-10-31T00:11:59;99160;;;11.7;91.2
51195;BME280;37259;49.972;19.850;2022-10-31T00:12:59;99160;;;11.7;91.2
51195;BME280;37259;49.972;19.850;2022-10-31T00:13:59;99160;;;11.7;91.1
51195;BME280;37259;49.972;19.850;2022-10-31T00:14:59;99160;;;11.7;91.1
51195;BME280;37259;49.972;19.850;2022-10-31T00:15:59;99160;;;11.7;91.1
51195;BME280;37259;49.972;19.850;2022-10-31T00:16:59;99160;;;11.7;91.1
51195;BME280;37259;49.972;19.850;2022-10-31T00:17:59;99170;;;11.7;90.9
51195;BME280;37259;49.972;19.850;2022-10-31T00:19:00;99170;;;11.7;90.9
51195;BME280;37259;49.972;19.850;2022-10-31T00:19:59;99160;;;11.7;90.8
51195;BME280;37259;49.972;19.850;2022-10-31T00:20:59;99160;;;11.6;90.8
51195;BME280;37259;49.972;19.850;2022-10-31T00:21:59;99160;;;11.6;90.7
51195;BME280;37259;49.972;19.850;2022-10-31T00:23:00;99160;;;11.6;90.7
51195;BME280;37259;49.972;19.850;2022-10-31T00:23:59;99170;;;11.6;90.6
51195;BME280;37259;49.972;19.850;2022-10-31T00:24:59;99170;;;11.6;90.6
51195;BME280;37259;49.972;19.850;2022-10-31T00:25:59;99170;;;11.6;90.5
51195;BME280;37259;49.972;19.850;2022-10-31T00:26:59;99170;;;11.6;90.5
51195;BME280;37259;49.972;19.850;2022-10-31T00:27:59;99170;;;11.6;90.4
51195;BME280;37259;49.972;19.850;2022-10-31T00:28:59;99170;;;11.6;90.4
51195;BME280;37259;49.972;19.850;2022-10-31T00:29:59;99170;;;11.6;90.6
51195;BME280;37259;49.972;19.850;2022-10-31T00:30:59;99170;;;11.6;90.6
51195;BME280;37259;49.972;19.850;2022-10-31T00:31:59;99170;;;11.6;90.6
51195;BME280;37259;49.972;19.850;2022-10-31T00:32:59;99160;;;11.6;90.7
51195;BME280;37259;49.972;19.850;2022-10-31T00:33:59;99160;;;11.6;90.7
51195;BME280;37259;49.972;19.850;2022-10-31T00:34:59;99170;;;11.6;90.7
51195;BME280;37259;49.972;19.850;2022-10-31T00:35:59;99170;;;11.6;90.7
51195;BME280;37259;49.972;19.850;2022-10-31T00:36:59;99170;;;11.6;90.8
51195;BME280;37259;49.972;19.850;2022-10-31T00:37:59;99170;;;11.6;90.9
51195;BME280;37259;49.972;19.850;2022-10-31T00:38:59;99170;;;11.6;90.9
51195;BME280;37259;49.972;19.850;2022-10-31T00:39:59;99170;;;11.7;90.9
51195;BME280;37259;49.972;19.850;2022-10-31T00:40:59;99170;;;11.7;90.9
51195;BME280;37259;49.972;19.850;2022-10-31T00:41:59;99170;;;11.7;90.9
51195;BME280;37259;49.972;19.850;2022-10-31T00:42:59;99170;;;11.7;90.8
51195;BME280;37259;49.972;19.850;2022-10-31T00:43:59;99170;;;11.6;90.8
51195;BME280;37259;49.972;19.850;2022-10-31T00:44:59;99170;;;11.6;90.8
51195;BME280;37259;49.972;19.850;2022-10-31T00:45:59;99170;;;11.6;90.7
51195;BME280;37259;49.972;19.850;2022-10-31T00:46:59;99170;;;11.6;90.6
51195;BME280;37259;49.972;19.850;2022-10-31T00:47:59;99170;;;11.6;90.6
51195;BME280;37259;49.972;19.850;2022-10-31T00:48:59;99170;;;11.6;90.5
51195;BME280;37259;49.972;19.850;2022-10-31T00:49:59;99180;;;11.6;90.5
51195;BME280;37259;49.972;19.850;2022-10-31T00:50:59;99180;;;11.6;90.5
51195;BME280;37259;49.972;19.850;2022-10-31T00:51:59;99180;;;11.5;90.3
51195;BME280;37259;49.972;19.850;2022-10-31T00:52:59;99180;;;11.5;90.3
51195;BME280;37259;49.972;19.850;2022-10-31T00:53:59;99180;;;11.5;90.2
51195;BME280;37259;49.972;19.850;2022-10-31T00:54:59;99180;;;11.5;90.2
51195;BME280;37259;49.972;19.850;2022-10-31T00:55:59;99180;;;11.5;90.1
51195;BME280;37259;49.972;19.850;2022-10-31T00:56:59;99180;;;11.5;90.1
51195;BME280;37259;49.972;19.850;2022-10-31T00:57:59;99180;;;11.5;90.1
51195;BME280;37259;49.972;19.850;2022-10-31T00:58:59;99180;;;11.4;90
51195;BME280;37259;49.972;19.850;2022-10-31T01:02:10;99180;;;11.4;89.9
51195;BME280;37259;49.972;19.850;2022-10-31T01:02:59;99180;;;11.4;89.8
51195;BME280;37259;49.972;19.850;2022-10-31T01:03:59;99180;;;11.3;89.7
51195;BME280;37259;49.972;19.850;2022-10-31T01:04:59;99180;;;11.3;89.6
51195;BME280;37259;49.972;19.850;2022-10-31T01:06:00;99180;;;11.3;89.7
51195;BME280;37259;49.972;19.850;2022-10-31T01:06:59;99180;;;11.3;89.7
51195;BME280;37259;49.972;19.850;2022-10-31T01:07:59;99180;;;11.3;89.8
51195;BME280;37259;49.972;19.850;2022-10-31T01:08:59;99180;;;11.3;89.8
51195;BME280;37259;49.972;19.850;2022-10-31T01:09:59;99180;;;11.3;90
51195;BME280;37259;49.972;19.850;2022-10-31T01:11:00;99180;;;11.3;90
51195;BME280;37259;49.972;19.850;2022-10-31T01:11:59;99180;;;11.3;90
51195;BME280;37259;49.972;19.850;2022-10-31T01:12:59;99170;;;11.3;90
51195;BME280;37259;49.972;19.850;2022-10-31T01:13:59;99180;;;11.3;90
51195;BME280;37259;49.972;19.850;2022-10-31T01:14:59;99180;;;11.3;90
51195;BME280;37259;49.972;19.850;2022-10-31T01:16:00;99180;;;11.3;90.1
51195;BME280;37259;49.972;19.850;2022-10-31T01:16:59;99180;;;11.3;90.1
51195;BME280;37259;49.972;19.850;2022-10-31T01:17:59;99170;;;11.3;90.3
51195;BME280;37259;49.972;19.850;2022-10-31T01:18:59;99180;;;11.3;90.4
51195;BME280;37259;49.972;19.850;2022-10-31T01:19:59;99180;;;11.3;90.4
51195;BME280;37259;49.972;19.850;2022-10-31T01:21:00;99170;;;11.3;90.4
51195;BME280;37259;49.972;19.850;2022-10-31T01:21:59;99170;;;11.4;90.4
51195;BME280;37259;49.972;19.850;2022-10-31T01:22:59;99170;;;11.3;90.4
51195;BME280;37259;49.972;19.850;2022-10-31T01:23:59;99170;;;11.3;90.4
51195;BME280;37259;49.972;19.850;2022-10-31T01:24:59;99170;;;11.3;90.5
51195;BME280;37259;49.972;19.850;2022-10-31T01:26:01;99170;;;11.4;90.5
51195;BME280;37259;49.972;19.850;2022-10-31T01:26:59;99170;;;11.4;90.5
51195;BME280;37259;49.972;19.850;2022-10-31T01:27:59;99170;;;11.4;90.5
51195;BME280;37259;49.972;19.850;2022-10-31T01:29:01;99170;;;11.4;90.5
51195;BME280;37259;49.972;19.850;2022-10-31T01:29:59;99170;;;11.4;90.5
51195;BME280;37259;49.972;19.850;2022-10-31T01:31:00;99170;;;11.3;90.5
51195;BME280;37259;49.972;19.850;2022-10-31T01:31:59;99170;;;11.3;90.5
51195;BME280;37259;49.972;19.850;2022-10-31T01:32:59;99170;;;11.3;90.5
51195;BME280;37259;49.972;19.850;2022-10-31T01:33:59;99170;;;11.3;90.5
51195;BME280;37259;49.972;19.850;2022-10-31T01:34:59;99170;;;11.3;90.5
51195;BME280;37259;49.972;19.850;2022-10-31T01:35:59;99170;;;11.3;90.5
51195;BME280;37259;49.972;19.850;2022-10-31T01:36:59;99170;;;11.3;90.5
51195;BME280;37259;49.972;19.850;2022-10-31T01:37:59;99170;;;11.3;90.4
51195;BME280;37259;49.972;19.850;2022-10-31T01:39:00;99160;;;11.3;90.4
51195;BME280;37259;49.972;19.850;2022-10-31T01:39:59;99160;;;11.3;90.4
51195;BME280;37259;49.972;19.850;2022-10-31T01:40:59;99160;;;11.3;90.4
51195;BME280;37259;49.972;19.850;2022-10-31T01:41:59;99160;;;11.3;90.3
51195;BME280;37259;49.972;19.850;2022-10-31T01:42:59;99160;;;11.3;90.3
51195;BME280;37259;49.972;19.850;2022-10-31T01:44:00;99160;;;11.3;90.3
51195;BME280;37259;49.972;19.850;2022-10-31T01:45:00;99160;;;11.3;90.3
51195;BME280;37259;49.972;19.850;2022-10-31T01:45:59;99160;;;11.3;90.2
51195;BME280;37259;49.972;19.850;2022-10-31T01:47:01;99160;;;11.2;90.2
51195;BME280;37259;49.972;19.850;2022-10-31T01:47:59;99160;;;11.2;90.1
51195;BME280;37259;49.972;19.850;2022-10-31T01:49:00;99160;;;11.2;90.1
51195;BME280;37259;49.972;19.850;2022-10-31T01:50:00;99160;;;11.2;90
51195;BME280;37259;49.972;19.850;2022-10-31T01:50:59;99160;;;11.2;90
51195;BME280;37259;49.972;19.850;2022-10-31T01:52:00;99160;;;11.2;90
51195;BME280;37259;49.972;19.850;2022-10-31T01:52:59;99160;;;11.2;90
51195;BME280;37259;49.972;19.850;2022-10-31T01:54:00;99160;;;11.2;90
51195;BME280;37259;49.972;19.850;2022-10-31T01:55:00;99160;;;11.2;90
51195;BME280;37259;49.972;19.850;2022-10-31T01:55:59;99160;;;11.2;90
51195;BME280;37259;49.972;19.850;2022-10-31T01:56:59;99160;;;11.2;90
51195;BME280;37259;49.972;19.850;2022-10-31T01:58:01;99160;;;11.1;89.9
51195;BME280;37259;49.972;19.850;2022-10-31T01:58:59;99160;;;11.1;90
51195;BME280;37259;49.972;19.850;2022-10-31T02:00:01;99160;;;11.1;90
51195;BME280;37259;49.972;19.850;2022-10-31T02:01:00;99160;;;11.1;90
51195;BME280;37259;49.972;19.850;2022-10-31T02:01:59;99160;;;11.1;90
51195;BME280;37259;49.972;19.850;2022-10-31T02:02:59;99170;;;11.1;90.1
51195;BME280;37259;49.972;19.850;2022-10-31T02:03:59;99170;;;11.1;90.1
51195;BME280;37259;49.972;19.850;2022-10-31T02:05:00;99170;;;11.1;90.1
51195;BME280;37259;49.972;19.850;2022-10-31T02:05:59;99170;;;11.1;90.1
51195;BME280;37259;49.972;19.850;2022-10-31T02:07:00;99170;;;11.1;90.1
51195;BME280;37259;49.972;19.850;2022-10-31T02:08:01;99170;;;11;90.2
51195;BME280;37259;49.972;19.850;2022-10-31T02:08:59;99160;;;11;90.4
51195;BME280;37259;49.972;19.850;2022-10-31T02:09:59;99160;;;11;90.5
51195;BME280;37259;49.972;19.850;2022-10-31T02:11:00;99160;;;11;90.5
51195;BME280;37259;49.972;19.850;2022-10-31T02:11:59;99160;;;11;90.6
51195;BME280;37259;49.972;19.850;2022-10-31T02:13:01;99160;;;11;90.6
51195;BME280;37259;49.972;19.850;2022-10-31T02:14:00;99160;;;11;90.8
51195;BME280;37259;49.972;19.850;2022-10-31T02:14:59;99160;;;11;90.8
51195;BME280;37259;49.972;19.850;2022-10-31T02:15:59;99160;;;11;90.8
51195;BME280;37259;49.972;19.850;2022-10-31T02:16:59;99160;;;11;90.8
51195;BME280;37259;49.972;19.850;2022-10-31T02:17:59;99160;;;11;90.8
51195;BME280;37259;49.972;19.850;2022-10-31T02:18:59;99160;;;11;90.9
51195;BME280;37259;49.972;19.850;2022-10-31T02:20:01;99160;;;11;90.9
51195;BME280;37259;49.972;19.850;2022-10-31T02:21:02;99160;;;11;90.9
51195;BME280;37259;49.972;19.850;2022-10-31T02:22:01;99160;;;11;90.9
51195;BME280;37259;49.972;19.850;2022-10-31T02:23:06;99160;;;11;90.9
51195;BME280;37259;49.972;19.850;2022-10-31T02:24:12;99160;;;11;90.9
51195;BME280;37259;49.972;19.850;2022-10-31T02:25:03;99160;;;11.1;90.9
51195;BME280;37259;49.972;19.850;2022-10-31T02:26:07;99160;;;11.1;90.9
51195;BME280;37259;49.972;19.850;2022-10-31T02:27:03;99160;;;11.1;90.9
51195;BME280;37259;49.972;19.850;2022-10-31T02:28:03;99160;;;11.1;90.9
51195;BME280;37259;49.972;19.850;2022-10-31T02:29:05;99160;;;11.1;91
51195;BME280;37259;49.972;19.850;2022-10-31T02:30:03;99160;;;11.1;91
51195;BME280;37259;49.972;19.850;2022-10-31T02:31:03;99160;;;11.1;91
51195;BME280;37259;49.972;19.850;2022-10-31T02:32:00;99170;;;11.1;91
51195;BME280;37259;49.972;19.850;2022-10-31T02:33:02;99170;;;11.1;91
51195;BME280;37259;49.972;19.850;2022-10-31T02:34:01;99170;;;11.1;91
51195;BME280;37259;49.972;19.850;2022-10-31T02:35:03;99170;;;11.1;91
51195;BME280;37259;49.972;19.850;2022-10-31T02:36:01;99170;;;11.1;91
51195;BME280;37259;49.972;19.850;2022-10-31T02:37:01;99170;;;11.1;91
51195;BME280;37259;49.972;19.850;2022-10-31T02:38:02;99170;;;11.1;91
51195;BME280;37259;49.972;19.850;2022-10-31T02:39:01;99170;;;11.1;91
51195;BME280;37259;49.972;19.850;2022-10-31T02:40:01;99170;;;11.1;91
51195;BME280;37259;49.972;19.850;2022-10-31T02:41:01;99170;;;11.1;91
51195;BME280;37259;49.972;19.850;2022-10-31T02:42:01;99180;;;11.1;90.9
51195;BME280;37259;49.972;19.850;2022-10-31T02:43:02;99180;;;11.1;90.9
51195;BME280;37259;49.972;19.850;2022-10-31T02:44:01;99180;;;11.1;90.9
51195;BME280;37259;49.972;19.850;2022-10-31T02:45:00;99180;;;11.1;90.9
51195;BME280;37259;49.972;19.850;2022-10-31T02:46:01;99180;;;11.1;90.9
51195;BME280;37259;49.972;19.850;2022-10-31T02:47:00;99180;;;11.1;90.9
51195;BME280;37259;49.972;19.850;2022-10-31T02:48:00;99180;;;11.2;90.9
51195;BME280;37259;49.972;19.850;2022-10-31T02:49:00;99190;;;11.2;90.9
51195;BME280;37259;49.972;19.850;2022-10-31T02:50:00;99190;;;11.2;90.9
51195;BME280;37259;49.972;19.850;2022-10-31T02:51:00;99190;;;11.2;90.9
51195;BME280;37259;49.972;19.850;2022-10-31T02:51:59;99190;;;11.2;90.9
51195;BME280;37259;49.972;19.850;2022-10-31T02:53:00;99190;;;11.2;90.9
51195;BME280;37259;49.972;19.850;2022-10-31T02:53:59;99190;;;11.2;90.9
51195;BME280;37259;49.972;19.850;2022-10-31T02:55:08;99190;;;11.2;90.8
51195;BME280;37259;49.972;19.850;2022-10-31T02:56:00;99190;;;11.2;90.8
51195;BME280;37259;49.972;19.850;2022-10-31T02:57:00;99190;;;11.2;90.8
51195;BME280;37259;49.972;19.850;2022-10-31T02:58:00;99190;;;11.2;90.8
51195;BME280;37259;49.972;19.850;2022-10-31T02:59:00;99190;;;11.2;90.8
51195;BME280;37259;49.972;19.850;2022-10-31T03:00:00;99190;;;11.2;90.8
51195;BME280;37259;49.972;19.850;2022-10-31T03:01:03;99190;;;11.2;90.7
51195;BME280;37259;49.972;19.850;2022-10-31T03:02:06;99190;;;11.2;90.6
51195;BME280;37259;49.972;19.850;2022-10-31T03:03:00;99190;;;11.2;90.6
51195;BME280;37259;49.972;19.850;2022-10-31T03:04:02;99190;;;11.2;90.5
51195;BME280;37259;49.972;19.850;2022-10-31T03:05:03;99190;;;11.2;90.5
51195;BME280;37259;49.972;19.850;2022-10-31T03:06:00;99190;;;11.2;90.5
51195;BME280;37259;49.972;19.850;2022-10-31T03:07:00;99190;;;11.2;90.4
51195;BME280;37259;49.972;19.850;2022-10-31T03:08:00;99190;;;11.2;90.4
51195;BME280;37259;49.972;19.850;2022-10-31T03:09:01;99190;;;11.1;90.4
51195;BME280;37259;49.972;19.850;2022-10-31T03:10:02;99190;;;11.1;90.3
51195;BME280;37259;49.972;19.850;2022-10-31T03:11:00;99190;;;11.1;90.3
51195;BME280;37259;49.972;19.850;2022-10-31T03:12:02;99190;;;11.1;90.3
51195;BME280;37259;49.972;19.850;2022-10-31T03:13:01;99190;;;11.1;90.3
51195;BME280;37259;49.972;19.850;2022-10-31T03:14:00;99190;;;11.1;90.3
51195;BME280;37259;49.972;19.850;2022-10-31T03:15:00;99190;;;11.1;90.3
51195;BME280;37259;49.972;19.850;2022-10-31T03:16:02;99200;;;11.1;90.3
51195;BME280;37259;49.972;19.850;2022-10-31T03:17:00;99200;;;11.1;90.3
51195;BME280;37259;49.972;19.850;2022-10-31T03:18:00;99200;;;11.1;90.3
51195;BME280;37259;49.972;19.850;2022-10-31T03:19:01;99200;;;11.1;90.3
51195;BME280;37259;49.972;19.850;2022-10-31T03:20:00;99200;;;11.1;90.4
51195;BME280;37259;49.972;19.850;2022-10-31T03:21:01;99200;;;11.1;90.4
51195;BME280;37259;49.972;19.850;2022-10-31T03:22:00;99200;;;11.1;90.5
51195;BME280;37259;49.972;19.850;2022-10-31T03:22:59;99200;;;11.1;90.5
51195;BME280;37259;49.972;19.850;2022-10-31T03:23:59;99200;;;11.1;90.5
51195;BME280;37259;49.972;19.850;2022-10-31T03:25:00;99200;;;11.2;90.5
51195;BME280;37259;49.972;19.850;2022-10-31T03:25:59;99200;;;11.2;90.5
51195;BME280;37259;49.972;19.850;2022-10-31T03:26:59;99200;;;11.2;90.5
51195;BME280;37259;49.972;19.850;2022-10-31T03:27:59;99200;;;11.2;90.6
51195;BME280;37259;49.972;19.850;2022-10-31T03:29:01;99200;;;11.2;90.6
51195;BME280;37259;49.972;19.850;2022-10-31T03:30:00;99200;;;11.2;90.6
51195;BME280;37259;49.972;19.850;2022-10-31T03:30:59;99200;;;11.2;90.6
51195;BME280;37259;49.972;19.850;2022-10-31T03:32:00;99200;;;11.2;90.6
51195;BME280;37259;49.972;19.850;2022-10-31T03:32:59;99200;;;11.3;90.6
51195;BME280;37259;49.972;19.850;2022-10-31T03:34:00;99200;;;11.3;90.6
51195;BME280;37259;49.972;19.850;2022-10-31T03:35:00;99200;;;11.3;90.7
51195;BME280;37259;49.972;19.850;2022-10-31T03:36:00;99200;;;11.3;90.7
51195;BME280;37259;49.972;19.850;2022-10-31T03:37:00;99200;;;11.3;90.7
51195;BME280;37259;49.972;19.850;2022-10-31T03:37:59;99200;;;11.3;90.7
51195;BME280;37259;49.972;19.850;2022-10-31T03:38:59;99200;;;11.3;90.7
51195;BME280;37259;49.972;19.850;2022-10-31T03:40:00;99200;;;11.3;90.7
51195;BME280;37259;49.972;19.850;2022-10-31T03:40:59;99200;;;11.3;90.7
51195;BME280;37259;49.972;19.850;2022-10-31T03:42:00;99200;;;11.4;90.7
51195;BME280;37259;49.972;19.850;2022-10-31T03:43:00;99200;;;11.4;90.7
51195;BME280;37259;49.972;19.850;2022-10-31T03:44:01;99210;;;11.4;90.7
51195;BME280;37259;49.972;19.850;2022-10-31T03:45:00;99210;;;11.4;90.7
51195;BME280;37259;49.972;19.850;2022-10-31T03:45:59;99200;;;11.4;90.7
51195;BME280;37259;49.972;19.850;2022-10-31T03:46:59;99210;;;11.4;90.6
51195;BME280;37259;49.972;19.850;2022-10-31T03:47:59;99210;;;11.4;90.6
51195;BME280;37259;49.972;19.850;2022-10-31T03:48:59;99210;;;11.4;90.6
51195;BME280;37259;49.972;19.850;2022-10-31T03:49:59;99210;;;11.4;90.6
51195;BME280;37259;49.972;19.850;2022-10-31T03:51:00;99210;;;11.4;90.6
51195;BME280;37259;49.972;19.850;2022-10-31T03:52:01;99210;;;11.4;90.6
51195;BME280;37259;49.972;19.850;2022-10-31T03:53:00;99210;;;11.4;90.5
51195;BME280;37259;49.972;19.850;2022-10-31T03:54:01;99210;;;11.4;90.4
51195;BME280;37259;49.972;19.850;2022-10-31T03:55:01;99210;;;11.4;90.4
51195;BME280;37259;49.972;19.850;2022-10-31T03:56:01;99200;;;11.3;90.4
51195;BME280;37259;49.972;19.850;2022-10-31T03:57:00;99200;;;11.3;90.4
51195;BME280;37259;49.972;19.850;2022-10-31T03:58:00;99200;;;11.3;90.4
51195;BME280;37259;49.972;19.850;2022-10-31T03:59:00;99210;;;11.3;90.4
51195;BME280;37259;49.972;19.850;2022-10-31T04:00:00;99210;;;11.3;90.4
51195;BME280;37259;49.972;19.850;2022-10-31T04:01:00;99200;;;11.3;90.3
51195;BME280;37259;49.972;19.850;2022-10-31T04:02:00;99200;;;11.3;90.3
51195;BME280;37259;49.972;19.850;2022-10-31T04:03:00;99200;;;11.2;90.2
51195;BME280;37259;49.972;19.850;2022-10-31T04:03:59;99210;;;11.2;90.2
51195;BME280;37259;49.972;19.850;2022-10-31T04:04:59;99200;;;11.2;90.2
51195;BME280;37259;49.972;19.850;2022-10-31T04:06:59;99200;;;11.2;90.1
51195;BME280;37259;49.972;19.850;2022-10-31T04:08:00;99200;;;11.2;90.1
51195;BME280;37259;49.972;19.850;2022-10-31T04:09:00;99200;;;11.2;90
51195;BME280;37259;49.972;19.850;2022-10-31T04:10:00;99200;;;11.2;90
51195;BME280;37259;49.972;19.850;2022-10-31T04:11:00;99200;;;11.2;89.9
51195;BME280;37259;49.972;19.850;2022-10-31T04:11:59;99200;;;11.1;89.9
51195;BME280;37259;49.972;19.850;2022-10-31T04:13:01;99200;;;11.1;89.8
51195;BME280;37259;49.972;19.850;2022-10-31T04:13:59;99200;;;11.1;89.8
51195;BME280;37259;49.972;19.850;2022-10-31T04:14:59;99200;;;11.1;89.8
51195;BME280;37259;49.972;19.850;2022-10-31T04:15:59;99210;;;11.1;89.8
51195;BME280;37259;49.972;19.850;2022-10-31T04:17:00;99200;;;11.1;89.8
51195;BME280;37259;49.972;19.850;2022-10-31T04:17:59;99200;;;11.1;89.8
51195;BME280;37259;49.972;19.850;2022-10-31T04:18:59;99210;;;11;89.7
51195;BME280;37259;49.972;19.850;2022-10-31T04:19:59;99210;;;11;89.7
51195;BME280;37259;49.972;19.850;2022-10-31T04:21:00;99210;;;11;89.7
51195;BME280;37259;49.972;19.850;2022-10-31T04:22:00;99210;;;11;89.7
51195;BME280;37259;49.972;19.850;2022-10-31T04:23:00;99210;;;11;89.7
51195;BME280;37259;49.972;19.850;2022-10-31T04:23:59;99210;;;11;89.6
51195;BME280;37259;49.972;19.850;2022-10-31T04:24:59;99210;;;11;89.6
51195;BME280;37259;49.972;19.850;2022-10-31T04:26:00;99210;;;10.9;89.6
51195;BME280;37259;49.972;19.850;2022-10-31T04:26:59;99210;;;10.9;89.5
51195;BME280;37259;49.972;19.850;2022-10-31T04:27:59;99210;;;10.9;89.5
51195;BME280;37259;49.972;19.850;2022-10-31T04:28:59;99210;;;10.9;89.4
51195;BME280;37259;49.972;19.850;2022-10-31T04:29:59;99210;;;10.9;89.4
51195;BME280;37259;49.972;19.850;2022-10-31T04:30:59;99210;;;10.8;89.3
51195;BME280;37259;49.972;19.850;2022-10-31T04:31:59;99210;;;10.8;89.3
51195;BME280;37259;49.972;19.850;2022-10-31T04:32:59;99210;;;10.8;89.3
51195;BME280;37259;49.972;19.850;2022-10-31T04:33:59;99210;;;10.7;89.2
51195;BME280;37259;49.972;19.850;2022-10-31T04:34:59;99210;;;10.7;89.2
51195;BME280;37259;49.972;19.850;2022-10-31T04:35:59;99210;;;10.7;89.2
51195;BME280;37259;49.972;19.850;2022-10-31T04:36:59;99210;;;10.7;89.2
51195;BME280;37259;49.972;19.850;2022-10-31T04:37:59;99210;;;10.7;89.2
51195;BME280;37259;49.972;19.850;2022-10-31T04:38:59;99210;;;10.7;89.2
51195;BME280;37259;49.972;19.850;2022-10-31T04:39:59;99210;;;10.7;89.2
51195;BME280;37259;49.972;19.850;2022-10-31T04:40:59;99210;;;10.6;89.2
51195;BME280;37259;49.972;19.850;2022-10-31T04:41:59;99210;;;10.6;89.2
51195;BME280;37259;49.972;19.850;2022-10-31T04:42:59;99210;;;10.6;89.2
51195;BME280;37259;49.972;19.850;2022-10-31T04:43:59;99210;;;10.6;89.2
51195;BME280;37259;49.972;19.850;2022-10-31T04:44:59;99210;;;10.6;89.2
51195;BME280;37259;49.972;19.850;2022-10-31T04:45:59;99210;;;10.6;89.2
51195;BME280;37259;49.972;19.850;2022-10-31T04:47:00;99210;;;10.6;89.2
51195;BME280;37259;49.972;19.850;2022-10-31T04:47:59;99210;;;10.6;89.2
51195;BME280;37259;49.972;19.850;2022-10-31T04:48:59;99210;;;10.6;89.2
51195;BME280;37259;49.972;19.850;2022-10-31T04:50:00;99210;;;10.5;89.2
51195;BME280;37259;49.972;19.850;2022-10-31T04:51:00;99210;;;10.5;89.2
51195;BME280;37259;49.972;19.850;2022-10-31T04:51:59;99210;;;10.5;89.2
51195;BME280;37259;49.972;19.850;2022-10-31T04:52:59;99210;;;10.5;89.2
51195;BME280;37259;49.972;19.850;2022-10-31T04:54:00;99210;;;10.5;89.2
51195;BME280;37259;49.972;19.850;2022-10-31T04:54:59;99210;;;10.4;89.2
51195;BME280;37259;49.972;19.850;2022-10-31T04:55:59;99210;;;10.4;89.2
51195;BME280;37259;49.972;19.850;2022-10-31T04:57:00;99210;;;10.4;89.2
51195;BME280;37259;49.972;19.850;2022-10-31T04:57:59;99210;;;10.4;89.2
51195;BME280;37259;49.972;19.850;2022-10-31T04:58:59;99210;;;10.4;89.3
51195;BME280;37259;49.972;19.850;2022-10-31T04:59:59;99210;;;10.4;89.3
51195;BME280;37259;49.972;19.850;2022-10-31T05:00:59;99210;;;10.4;89.4
51195;BME280;37259;49.972;19.850;2022-10-31T05:01:59;99210;;;10.4;89.4
51195;BME280;37259;49.972;19.850;2022-10-31T05:03:00;99210;;;10.4;89.4
51195;BME280;37259;49.972;19.850;2022-10-31T05:03:59;99210;;;10.3;89.4
51195;BME280;37259;49.972;19.850;2022-10-31T05:04:59;99210;;;10.3;89.4
51195;BME280;37259;49.972;19.850;2022-10-31T05:05:59;99210;;;10.3;89.4
51195;BME280;37259;49.972;19.850;2022-10-31T05:06:59;99210;;;10.3;89.4
51195;BME280;37259;49.972;19.850;2022-10-31T05:08:00;99210;;;10.3;89.5
51195;BME280;37259;49.972;19.850;2022-10-31T05:08:59;99210;;;10.3;89.5
51195;BME280;37259;49.972;19.850;2022-10-31T05:09:59;99210;;;10.3;89.5
51195;BME280;37259;49.972;19.850;2022-10-31T05:11:00;99210;;;10.3;89.6
51195;BME280;37259;49.972;19.850;2022-10-31T05:12:00;99210;;;10.3;89.6
51195;BME280;37259;49.972;19.850;2022-10-31T05:13:00;99210;;;10.3;89.6
51195;BME280;37259;49.972;19.850;2022-10-31T05:13:59;99210;;;10.3;89.6
51195;BME280;37259;49.972;19.850;2022-10-31T05:14:59;99210;;;10.3;89.7
51195;BME280;37259;49.972;19.850;2022-10-31T05:15:59;99210;;;10.3;89.8
51195;BME280;37259;49.972;19.850;2022-10-31T05:16:59;99210;;;10.3;89.8
51195;BME280;37259;49.972;19.850;2022-10-31T05:17:59;99220;;;10.3;89.8
51195;BME280;37259;49.972;19.850;2022-10-31T05:18:59;99220;;;10.3;89.8
51195;BME280;37259;49.972;19.850;2022-10-31T05:20:00;99220;;;10.3;89.8
51195;BME280;37259;49.972;19.850;2022-10-31T05:20:59;99220;;;10.3;89.8
51195;BME280;37259;49.972;19.850;2022-10-31T05:21:59;99220;;;10.2;89.8
51195;BME280;37259;49.972;19.850;2022-10-31T05:22:59;99220;;;10.2;89.8
51195;BME280;37259;49.972;19.850;2022-10-31T05:23:59;99220;;;10.2;89.7
51195;BME280;37259;49.972;19.850;2022-10-31T05:24:59;99220;;;10.2;89.6
51195;BME280;37259;49.972;19.850;2022-10-31T05:25:59;99220;;;10.2;89.6
51195;BME280;37259;49.972;19.850;2022-10-31T05:26:59;99220;;;10.2;89.5
51195;BME280;37259;49.972;19.850;2022-10-31T05:27:59;99220;;;10.1;89.5
51195;BME280;37259;49.972;19.850;2022-10-31T05:29:00;99220;;;10.1;89.4
51195;BME280;37259;49.972;19.850;2022-10-31T05:29:59;99220;;;10.1;89.4
51195;BME280;37259;49.972;19.850;2022-10-31T05:30:59;99230;;;10.1;89.3
51195;BME280;37259;49.972;19.850;2022-10-31T05:31:59;99230;;;10.1;89.3
51195;BME280;37259;49.972;19.850;2022-10-31T05:33:00;99230;;;10;89.3
51195;BME280;37259;49.972;19.850;2022-10-31T05:33:59;99230;;;10;89.3
51195;BME280;37259;49.972;19.850;2022-10-31T05:34:59;99230;;;10;89.2
51195;BME280;37259;49.972;19.850;2022-10-31T05:35:59;99230;;;10;89.2
51195;BME280;37259;49.972;19.850;2022-10-31T05:36:59;99230;;;10;89.2
51195;BME280;37259;49.972;19.850;2022-10-31T05:37:59;99230;;;10;89.2
51195;BME280;37259;49.972;19.850;2022-10-31T05:38:59;99230;;;10;89.1
51195;BME280;37259;49.972;19.850;2022-10-31T05:39:59;99230;;;9.9;89.1
51195;BME280;37259;49.972;19.850;2022-10-31T05:40:59;99230;;;9.9;89.1